Time;durP1;ratioP1;P1;durP2;ratioP2;P2;SDS_P1;SDS_P2;PMS_P1;PMS_P2;Temp;Humidity;BMP_temperature;BMP_pressure;BME280_temperature;BME280_humidity;BME280_pressure;Samples;Min_cycle;Max_cycle;Signal;HPM_P1;HPM_P2
2022/12/08 00:01:28;;;;;;;42.83;21.90;;;1.80;99.90;;;0.48;100.00;96938.78;5089197;28;20454;-73
2022/12/08 00:03:56;;;;;;;39.30;21.15;;;1.80;99.90;;;0.52;100.00;96940.00;5091223;28;20393;-75
2022/12/08 00:09:20;;;;;;;31.03;18.87;;;1.90;99.90;;;0.55;100.00;96934.38;5091371;28;20417;-74
2022/12/08 00:11:47;;;;;;;38.97;21.05;;;1.90;99.90;;;0.56;100.00;96932.56;5092070;28;20398;-75
2022/12/08 00:14:13;;;;;;;36.58;20.20;;;1.90;99.90;;;0.51;100.00;96934.97;5091049;28;20406;-74
2022/12/08 00:16:40;;;;;;;37.63;20.50;;;1.90;99.90;;;0.46;100.00;96932.16;5090626;28;20414;-74
2022/12/08 00:19:06;;;;;;;34.08;19.75;;;1.80;99.90;;;0.36;100.00;96928.16;5091801;28;20406;-74
2022/12/08 00:21:32;;;;;;;31.38;18.88;;;1.70;99.90;;;0.29;100.00;96935.16;5092078;28;20477;-73
2022/12/08 00:23:58;;;;;;;37.58;19.38;;;1.60;99.90;;;0.22;100.00;96930.94;5091177;28;20798;-73
2022/12/08 00:26:24;;;;;;;35.13;21.00;;;1.60;99.90;;;0.16;100.00;96929.09;5091958;28;20444;-73
2022/12/08 00:28:50;;;;;;;34.75;19.75;;;1.50;99.90;;;0.13;100.00;96924.28;5091744;28;20997;-74
2022/12/08 00:31:16;;;;;;;36.05;19.38;;;1.50;99.90;;;0.06;100.00;96918.28;5088820;28;20398;-74
2022/12/08 00:33:43;;;;;;;37.10;20.20;;;1.50;99.90;;;-0.02;100.00;96920.06;5089508;28;20406;-74
2022/12/08 00:36:12;;;;;;;35.15;19.27;;;1.40;99.90;;;-0.07;100.00;96917.22;5092220;28;20501;-74
2022/12/08 00:38:39;;;;;;;35.95;19.70;;;1.30;99.90;;;-0.13;100.00;96912.78;5096717;28;20820;-74
2022/12/08 00:41:11;;;;;;;37.17;18.95;;;1.30;99.90;;;-0.19;100.00;96908.38;5091905;28;20775;-74
2022/12/08 00:43:37;;;;;;;35.30;18.73;;;1.20;99.90;;;-0.27;100.00;96897.34;5090636;28;20394;-74
2022/12/08 00:46:03;;;;;;;33.65;18.98;;;1.20;99.90;;;-0.31;100.00;96906.53;5091227;28;20429;-74
2022/12/08 00:48:29;;;;;;;32.55;19.08;;;1.10;99.90;;;-0.36;100.00;96901.09;5089910;28;20899;-74
2022/12/08 00:50:56;;;;;;;35.00;18.60;;;1.10;99.90;;;-0.40;100.00;96904.09;5091624;28;20405;-75
2022/12/08 00:53:22;;;;;;;33.75;18.52;;;1.00;99.90;;;-0.42;100.00;96905.28;5090382;28;20398;-74
2022/12/08 00:55:48;;;;;;;34.07;19.53;;;1.00;99.90;;;-0.43;100.00;96901.06;5091116;28;20416;-74
2022/12/08 00:58:14;;;;;;;34.42;18.88;;;1.00;99.90;;;-0.47;100.00;96900.69;5091097;28;20446;-74
2022/12/08 01:00:40;;;;;;;29.58;17.63;;;1.00;99.90;;;-0.47;100.00;96899.88;5091097;28;20907;-74
2022/12/08 01:03:09;;;;;;;34.45;19.70;;;0.90;99.90;;;-0.49;100.00;96905.25;5090110;28;20481;-74
2022/12/08 01:05:35;;;;;;;38.13;20.00;;;0.90;99.90;;;-0.50;100.00;96898.44;5090982;28;20767;-73
2022/12/08 01:08:04;;;;;;;37.85;20.73;;;0.90;99.90;;;-0.54;100.00;96894.66;5090979;28;20393;-73
2022/12/08 01:10:30;;;;;;;33.85;19.42;;;0.90;99.90;;;-0.57;100.00;96897.63;5090775;28;20398;-74
2022/12/08 01:12:57;;;;;;;37.35;20.80;;;0.90;99.90;;;-0.62;100.00;96894.81;5088927;28;20830;-74
2022/12/08 01:15:23;;;;;;;36.42;21.83;;;0.80;99.90;;;-0.68;100.00;96905.97;5090610;28;20445;-73
2022/12/08 01:17:49;;;;;;;37.97;21.00;;;0.80;99.90;;;-0.72;100.00;96906.53;5090558;28;20417;-73
2022/12/08 01:20:15;;;;;;;37.70;20.60;;;0.80;99.90;;;-0.77;100.00;96908.91;5090736;28;20817;-73
2022/12/08 01:22:41;;;;;;;39.13;21.87;;;0.70;99.90;;;-0.80;100.00;96902.28;5090097;28;20433;-73
2022/12/08 01:25:08;;;;;;;35.42;20.67;;;0.60;99.90;;;-0.85;100.00;96897.69;5090243;28;20412;-73
2022/12/08 01:27:34;;;;;;;34.45;19.88;;;0.60;99.90;;;-0.91;100.00;96908.84;5090596;28;20888;-73
2022/12/08 01:30:00;;;;;;;35.83;20.05;;;0.60;99.90;;;-0.94;100.00;96909.22;5090557;28;20459;-74
2022/12/08 01:32:26;;;;;;;38.92;21.33;;;0.50;99.90;;;-1.00;100.00;96907.38;5090288;28;20398;-74
2022/12/08 01:34:52;;;;;;;42.30;21.33;;;0.50;99.90;;;-1.04;100.00;96907.94;5089519;28;20942;-74
2022/12/08 01:37:18;;;;;;;36.20;20.10;;;0.50;99.90;;;-1.10;100.00;96901.69;5090392;28;20414;-73
2022/12/08 01:39:44;;;;;;;37.53;21.00;;;0.40;99.90;;;-1.13;100.00;96903.91;5090354;28;20394;-74
2022/12/08 01:42:19;;;;;;;36.97;20.13;;;0.40;99.90;;;-1.15;100.00;96893.69;5090346;28;20910;-74
2022/12/08 01:44:59;;;;;;;34.08;20.40;;;0.40;99.90;;;-1.19;100.00;96895.84;5086630;28;20406;-74
2022/12/08 01:47:33;;;;;;;39.40;20.80;;;0.30;99.90;;;-1.24;100.00;96895.63;5087438;28;20398;-74
2022/12/08 01:50:00;;;;;;;37.92;20.88;;;0.30;99.90;;;-1.30;100.00;96898.97;5090205;28;20398;-74
2022/12/08 01:52:32;;;;;;;37.50;21.13;;;0.20;99.90;;;-1.33;100.00;96901.13;5090115;28;20433;-74
2022/12/08 01:55:05;;;;;;;35.95;20.38;;;0.20;99.90;;;-1.34;100.00;96896.94;5089190;28;20439;-74
2022/12/08 01:57:39;;;;;;;38.35;20.73;;;0.20;99.90;;;-1.36;100.00;96902.31;5088082;28;20466;-74
2022/12/08 02:00:09;;;;;;;40.38;21.75;;;0.10;99.90;;;-1.40;100.00;96895.88;5089983;28;20887;-74
2022/12/08 02:02:45;;;;;;;39.38;21.33;;;0.10;99.90;;;-1.44;100.00;96899.88;5089866;28;20412;-74
2022/12/08 02:05:12;;;;;;;40.90;22.37;;;0.10;99.90;;;-1.38;100.00;96890.50;5088213;28;20482;-74
2022/12/08 02:07:38;;;;;;;42.22;21.27;;;0.10;99.90;;;-1.44;100.00;96883.50;5089889;28;20394;-74
2022/12/08 02:10:05;;;;;;;41.03;21.52;;;0.10;99.90;;;-1.47;100.00;96889.84;5089821;28;20398;-74
2022/12/08 02:12:33;;;;;;;36.92;19.50;;;0.00;99.90;;;-1.54;100.00;96886.41;5089585;28;20485;-74
2022/12/08 02:14:59;;;;;;;37.13;20.40;;;0.00;99.90;;;-1.58;100.00;96885.94;5088642;28;20410;-74
2022/12/08 02:17:43;;;;;;;40.88;21.30;;;0.00;99.90;;;-1.54;100.00;96883.00;5089752;28;20421;-74
2022/12/08 02:20:40;;;;;;;40.08;21.33;;;0.00;99.90;;;-1.58;100.00;96872.19;5087276;28;20406;-75
2022/12/08 02:23:21;;;;;;;34.42;19.25;;;-0.10;99.90;;;-1.59;100.00;96870.59;5086062;28;20440;-75
2022/12/08 02:26:20;;;;;;;45.42;23.77;;;-0.10;99.90;;;-1.58;100.00;96862.59;5086505;28;20497;-74
2022/12/08 02:29:12;;;;;;;43.08;22.38;;;-0.10;99.90;;;-1.57;100.00;96856.41;5086787;28;20406;-75
2022/12/08 02:31:54;;;;;;;40.13;21.58;;;-0.10;99.90;;;-1.61;100.00;96854.41;5087059;28;20406;-74
2022/12/08 02:34:28;;;;;;;39.40;20.58;;;-0.10;99.90;;;-1.63;100.00;96851.19;5087741;28;21196;-74
2022/12/08 02:37:06;;;;;;;39.80;20.85;;;-0.10;99.90;;;-1.67;100.00;96845.59;5087618;28;20471;-74
2022/12/08 02:39:40;;;;;;;35.10;19.55;;;-0.10;99.90;;;-1.69;100.00;96851.94;5087349;28;20398;-74
2022/12/08 02:42:15;;;;;;;40.65;21.42;;;-0.20;99.90;;;-1.72;100.00;96842.72;5086610;28;20397;-74
2022/12/08 02:44:47;;;;;;;38.70;20.23;;;-0.20;99.90;;;-1.74;100.00;96838.72;5088128;28;20542;-75
2022/12/08 02:47:17;;;;;;;36.72;19.92;;;-0.20;99.90;;;-1.75;100.00;96835.34;5089082;28;20401;-75
2022/12/08 02:49:44;;;;;;;38.38;20.17;;;-0.20;99.90;;;-1.77;100.00;96836.50;5089138;28;20402;-75
2022/12/08 02:52:38;;;;;;;40.93;21.33;;;-0.20;99.90;;;-1.80;100.00;96824.69;5089262;28;20405;-75
2022/12/08 02:55:10;;;;;;;44.92;23.33;;;-0.20;99.90;;;-1.76;100.00;96825.13;5087317;28;20402;-75
2022/12/08 02:57:50;;;;;;;42.42;22.67;;;-0.30;99.90;;;-1.82;100.00;96833.69;5089212;28;20771;-75
2022/12/08 03:00:19;;;;;;;38.25;20.25;;;-0.30;99.90;;;-1.85;100.00;96834.84;5087792;28;20484;-75
2022/12/08 03:03:03;;;;;;;42.83;22.33;;;-0.30;99.90;;;-1.89;100.00;96825.84;5088377;28;20858;-75
2022/12/08 03:05:52;;;;;;;35.75;19.90;;;-0.30;99.90;;;-1.88;100.00;96829.22;5086504;28;20397;-75
2022/12/08 03:08:30;;;;;;;47.67;22.23;;;-0.30;99.90;;;-1.90;100.00;96828.63;5087905;28;20429;-75
2022/12/08 03:11:06;;;;;;;38.97;20.85;;;-0.40;99.90;;;-1.93;100.00;96834.97;5087268;28;20491;-75
2022/12/08 03:13:38;;;;;;;36.92;20.33;;;-0.40;99.90;;;-1.95;100.00;96831.75;5085904;28;20402;-74
2022/12/08 03:16:08;;;;;;;43.83;22.60;;;-0.40;99.90;;;-1.97;100.00;96828.56;5088617;28;20390;-74
2022/12/08 03:18:41;;;;;;;39.65;20.45;;;-0.40;99.90;;;-1.97;100.00;96831.16;5088504;28;20414;-75
2022/12/08 03:21:09;;;;;;;45.08;22.75;;;-0.40;99.90;;;-1.95;100.00;96829.97;5086140;28;20390;-75
2022/12/08 03:23:37;;;;;;;47.38;23.50;;;-0.40;99.90;;;-1.93;100.00;96824.59;5086649;28;20783;-74
2022/12/08 03:26:12;;;;;;;48.03;23.77;;;-0.40;99.90;;;-1.99;100.00;96820.16;5088957;28;20806;-75
2022/12/08 03:28:38;;;;;;;50.15;23.55;;;-0.50;99.90;;;-2.06;100.00;96817.50;5090126;28;20394;-74
2022/12/08 03:31:09;;;;;;;41.45;20.52;;;-0.50;99.90;;;-2.08;100.00;96816.88;5089828;28;20476;-74
2022/12/08 03:33:40;;;;;;;43.45;21.60;;;-0.50;99.90;;;-2.07;100.00;96805.53;5089117;28;20397;-74
2022/12/08 03:36:09;;;;;;;41.70;21.00;;;-0.50;99.90;;;-2.07;100.00;96810.72;5089775;28;20413;-74
2022/12/08 03:38:41;;;;;;;41.65;21.52;;;-0.50;99.90;;;-2.08;100.00;96811.69;5094293;28;20441;-74
2022/12/08 03:41:19;;;;;;;45.30;22.83;;;-0.50;99.90;;;-2.08;100.00;96806.50;5095245;28;20412;-75
2022/12/08 03:43:47;;;;;;;39.00;20.75;;;-0.50;99.90;;;-2.10;100.00;96792.91;5094218;28;20397;-74
2022/12/08 03:46:13;;;;;;;42.95;22.17;;;-0.60;99.90;;;-2.09;100.00;96796.31;5093721;28;20409;-74
2022/12/08 03:48:39;;;;;;;43.47;20.83;;;-0.60;99.90;;;-2.17;100.00;96789.47;5093899;28;20497;-74
2022/12/08 03:51:05;;;;;;;41.60;21.38;;;-0.60;99.90;;;-2.18;100.00;96789.69;5093678;28;20397;-74
2022/12/08 03:53:32;;;;;;;40.67;20.98;;;-0.60;99.90;;;-2.22;100.00;96794.41;5092856;28;20394;-74
2022/12/08 03:55:58;;;;;;;35.80;18.92;;;-0.60;99.90;;;-2.24;100.00;96791.19;5093669;28;20420;-74
2022/12/08 03:58:24;;;;;;;39.33;19.83;;;-0.70;99.90;;;-2.25;100.00;96786.19;5093629;28;20897;-74
2022/12/08 04:00:51;;;;;;;41.10;21.55;;;-0.70;99.90;;;-2.28;100.00;96784.78;5093558;28;20481;-74
2022/12/08 04:03:16;;;;;;;43.15;21.60;;;-0.70;99.90;;;-2.25;100.00;96787.00;5092697;28;20926;-74
2022/12/08 04:05:42;;;;;;;40.47;20.30;;;-0.70;99.90;;;-2.30;100.00;96784.16;5093626;28;20398;-74
2022/12/08 04:08:08;;;;;;;39.65;20.60;;;-0.70;99.90;;;-2.32;100.00;96778.34;5093615;28;20426;-74
2022/12/08 04:10:35;;;;;;;39.87;21.10;;;-0.80;99.90;;;-2.35;100.00;96781.34;5093376;28;20402;-74
2022/12/08 04:13:01;;;;;;;41.65;20.95;;;-0.80;99.90;;;-2.34;100.00;96780.34;5092527;28;20427;-74
2022/12/08 04:15:27;;;;;;;43.33;22.00;;;-0.80;99.90;;;-2.32;100.00;96780.94;5093243;28;20748;-74
2022/12/08 04:17:53;;;;;;;36.38;19.70;;;-0.80;99.90;;;-2.37;100.00;96781.50;5093311;28;20432;-74
2022/12/08 04:20:19;;;;;;;44.30;21.75;;;-0.80;99.90;;;-2.35;100.00;96781.34;5093317;28;20489;-74
2022/12/08 04:22:45;;;;;;;41.05;21.58;;;-0.80;99.90;;;-2.37;100.00;96775.53;5092494;28;20477;-74
2022/12/08 04:25:11;;;;;;;34.35;19.77;;;-0.80;99.90;;;-2.42;100.00;96775.28;5093137;28;20838;-74
2022/12/08 04:27:38;;;;;;;37.63;19.33;;;-0.90;99.90;;;-2.44;100.00;96772.88;5092913;28;20419;-75
2022/12/08 04:30:06;;;;;;;40.00;20.52;;;-0.90;99.90;;;-2.42;100.00;96780.47;5093153;28;20398;-74
2022/12/08 04:32:32;;;;;;;48.65;21.42;;;-0.90;99.90;;;-2.38;100.00;96777.31;5092893;28;20417;-75
2022/12/08 04:34:58;;;;;;;36.80;19.93;;;-0.90;99.90;;;-2.41;100.00;96774.31;5090904;28;20406;-74
2022/12/08 04:37:24;;;;;;;36.97;18.75;;;-0.90;99.90;;;-2.44;100.00;96772.06;5092986;28;20899;-75
2022/12/08 04:39:50;;;;;;;39.43;18.63;;;-0.90;99.90;;;-2.45;100.00;96773.06;5091658;28;20406;-74
2022/12/08 04:42:16;;;;;;;45.55;22.25;;;-0.90;99.90;;;-2.42;100.00;96767.50;5092659;28;20962;-75
2022/12/08 04:44:43;;;;;;;42.30;19.93;;;-0.90;99.90;;;-2.49;100.00;96770.03;5091748;28;20472;-74
2022/12/08 04:47:09;;;;;;;42.85;22.00;;;-0.90;99.90;;;-2.49;100.00;96769.25;5106504;22;20441;-74
2022/12/08 04:49:35;;;;;;;37.78;19.50;;;-0.90;99.90;;;-2.50;100.00;96767.63;5108343;28;20418;-74
2022/12/08 04:52:01;;;;;;;38.72;19.80;;;-1.00;99.90;;;-2.51;100.00;96768.63;5092669;28;20421;-74
2022/12/08 04:54:27;;;;;;;40.15;20.48;;;-1.00;99.90;;;-2.50;100.00;96762.44;5091786;28;20824;-75
2022/12/08 04:56:53;;;;;;;44.90;21.77;;;-1.00;99.90;;;-2.53;100.00;96773.16;5092447;28;20485;-73
2022/12/08 04:59:19;;;;;;;42.30;21.17;;;-1.00;99.90;;;-2.54;100.00;96764.59;5092342;28;20406;-74
2022/12/08 05:01:46;;;;;;;41.73;21.13;;;-1.00;99.90;;;-2.56;100.00;96766.59;5092405;28;20459;-73
2022/12/08 05:04:12;;;;;;;47.63;22.20;;;-1.00;99.90;;;-2.55;100.00;96764.78;5107191;28;20501;-74
2022/12/08 05:06:37;;;;;;;36.78;20.17;;;-1.00;99.90;;;-2.60;100.00;96757.56;5080813;28;20499;-73
2022/12/08 05:09:03;;;;;;;37.45;18.67;;;-1.10;99.90;;;-2.59;100.00;96755.78;5078038;28;20410;-74
2022/12/08 05:11:29;;;;;;;45.80;22.55;;;-1.10;99.90;;;-2.53;100.00;96749.84;5091887;28;20434;-73
2022/12/08 05:13:55;;;;;;;42.30;21.23;;;-1.00;99.90;;;-2.56;100.00;96752.81;5091423;28;20496;-73
2022/12/08 05:16:21;;;;;;;42.47;20.73;;;-1.00;99.90;;;-2.55;100.00;96747.44;5092138;28;20405;-73
2022/12/08 05:18:48;;;;;;;40.85;20.77;;;-1.00;99.90;;;-2.52;100.00;96744.50;5092088;28;20444;-73
2022/12/08 05:21:14;;;;;;;41.22;20.08;;;-1.00;99.90;;;-2.50;100.00;96741.72;5089889;28;20418;-73
2022/12/08 05:23:40;;;;;;;43.90;21.17;;;-1.00;99.90;;;-2.48;100.00;96750.91;5080664;28;20436;-73
2022/12/08 05:26:06;;;;;;;37.95;19.92;;;-1.00;99.90;;;-2.49;100.00;96751.09;5083234;28;20462;-73
2022/12/08 05:28:32;;;;;;;37.05;19.35;;;-0.90;99.90;;;-2.49;100.00;96751.09;5083841;28;20410;-74
2022/12/08 05:30:58;;;;;;;40.00;20.25;;;-1.00;99.90;;;-2.47;100.00;96749.91;5101886;28;20858;-73
2022/12/08 05:33:24;;;;;;;48.95;21.73;;;-1.00;99.90;;;-2.49;100.00;96741.53;5091215;28;20408;-73
2022/12/08 05:35:51;;;;;;;42.92;21.88;;;-1.00;99.90;;;-2.51;100.00;96742.69;5082456;28;20822;-75
2022/12/08 05:38:17;;;;;;;37.83;20.20;;;-1.00;99.90;;;-2.51;100.00;96747.88;5081294;28;20422;-74
2022/12/08 05:40:43;;;;;;;39.60;19.50;;;-1.00;99.90;;;-2.53;100.00;96749.84;5075061;28;20439;-74
2022/12/08 05:43:10;;;;;;;42.10;21.35;;;-1.00;99.90;;;-2.53;100.00;96755.03;5070547;28;20497;-74
2022/12/08 05:45:36;;;;;;;38.72;20.13;;;-1.00;99.90;;;-2.55;100.00;96741.44;5071176;28;20408;-74
2022/12/08 05:48:02;;;;;;;43.38;21.38;;;-1.00;99.90;;;-2.54;100.00;96749.03;5071224;28;20404;-74
2022/12/08 05:50:28;;;;;;;38.78;20.50;;;-1.00;99.90;;;-2.53;100.00;96744.66;5071272;28;20834;-74
2022/12/08 05:52:55;;;;;;;42.57;21.67;;;-1.00;99.90;;;-2.53;100.00;96747.25;5070264;28;20482;-77
2022/12/08 05:55:21;;;;;;;43.38;21.35;;;-1.00;99.90;;;-2.51;100.00;96743.50;5071127;28;20758;-71
2022/12/08 05:57:47;;;;;;;41.75;21.75;;;-1.00;99.90;;;-2.51;100.00;96740.13;5071095;28;20423;-71
2022/12/08 06:00:14;;;;;;;40.77;22.00;;;-1.00;99.90;;;-2.50;100.00;96741.72;5070117;28;20436;-73
2022/12/08 06:02:40;;;;;;;45.40;23.10;;;-1.00;99.90;;;-2.51;100.00;96737.53;5070217;28;20436;-75
2022/12/08 06:05:07;;;;;;;39.38;22.00;;;-1.00;99.90;;;-2.53;100.00;96745.47;5070686;28;20484;-73
2022/12/08 06:07:33;;;;;;;43.60;21.83;;;-1.00;99.90;;;-2.53;100.00;96747.25;5072304;28;20419;-74
2022/12/08 06:10:00;;;;;;;48.25;25.13;;;-1.00;99.90;;;-2.51;100.00;96740.91;5089891;28;20431;-74
2022/12/08 06:12:26;;;;;;;43.20;22.50;;;-1.00;99.90;;;-2.54;100.00;96738.69;5089499;28;20471;-74
2022/12/08 06:14:52;;;;;;;38.55;20.88;;;-1.00;99.90;;;-2.54;100.00;96741.28;5090086;28;20402;-74
2022/12/08 06:17:17;;;;;;;44.70;22.03;;;-1.00;99.90;;;-2.55;100.00;96736.28;5090902;28;20578;-74
2022/12/08 06:19:43;;;;;;;44.50;22.38;;;-1.00;99.90;;;-2.56;100.00;96743.28;5090842;28;20432;-74
2022/12/08 06:22:09;;;;;;;37.77;19.37;;;-1.00;99.90;;;-2.58;100.00;96736.66;5090666;28;20413;-74
2022/12/08 06:24:35;;;;;;;36.17;17.73;;;-1.00;99.90;;;-2.60;100.00;96734.25;5083447;28;20421;-78
2022/12/08 06:27:02;;;;;;;34.23;17.00;;;-1.10;99.90;;;-2.59;100.00;96732.47;5076309;28;20442;-73
2022/12/08 06:29:28;;;;;;;32.58;17.90;;;-1.10;99.90;;;-2.60;100.00;96739.44;5074461;28;20405;-74
2022/12/08 06:31:54;;;;;;;32.17;17.77;;;-1.10;99.90;;;-2.63;100.00;96734.59;5084914;28;20910;-74
2022/12/08 06:34:20;;;;;;;32.07;16.87;;;-1.10;99.90;;;-2.63;100.00;96739.78;5075846;28;20435;-74
2022/12/08 06:36:46;;;;;;;37.95;17.88;;;-1.10;99.90;;;-2.62;100.00;96749.16;5076070;28;20485;-74
2022/12/08 06:39:12;;;;;;;34.97;17.20;;;-1.10;99.90;;;-2.62;100.00;96746.56;5078713;28;20514;-73
2022/12/08 06:42:42;;;;;;;28.20;14.95;;;-1.10;99.90;;;-2.65;100.00;96736.59;5089465;28;20479;-75
2022/12/08 06:44:25;;;;;;;36.33;16.63;;;-1.10;99.90;;;-2.68;100.00;96739.53;5097673;28;20406;-75
2022/12/08 06:46:51;;;;;;;33.53;16.75;;;-1.10;99.90;;;-2.70;100.00;96735.53;5101829;28;20406;-74
2022/12/08 06:49:17;;;;;;;31.05;16.40;;;-1.20;99.90;;;-2.71;100.00;96747.69;5099248;28;20858;-75
2022/12/08 06:51:43;;;;;;;30.05;15.90;;;-1.20;99.90;;;-2.74;100.00;96746.25;5100479;28;20400;-75
2022/12/08 06:54:08;;;;;;;27.83;14.95;;;-1.20;99.90;;;-2.72;100.00;96747.88;5101326;28;20429;-75
2022/12/08 06:56:34;;;;;;;34.10;16.48;;;-1.20;99.90;;;-2.74;100.00;96751.44;5097364;28;20468;-75
2022/12/08 06:59:00;;;;;;;30.52;16.15;;;-1.20;99.90;;;-2.76;100.00;96753.41;5089787;28;20800;-74
2022/12/08 07:01:27;;;;;;;38.78;18.30;;;-1.20;99.90;;;-2.71;100.00;96754.66;5098726;28;20453;-74
2022/12/08 07:03:53;;;;;;;34.40;16.92;;;-1.20;99.90;;;-2.77;100.00;96749.22;5100932;28;20776;-74
2022/12/08 07:06:23;;;;;;;33.07;16.67;;;-1.20;99.90;;;-2.79;100.00;96751.19;5100728;28;20398;-75
2022/12/08 07:08:49;;;;;;;33.50;17.00;;;-1.30;99.90;;;-2.80;100.00;96754.78;5089760;28;20394;-74
2022/12/08 07:11:16;;;;;;;29.33;14.68;;;-1.30;99.90;;;-2.83;100.00;96754.31;5096618;28;20708;-74
2022/12/08 07:13:42;;;;;;;30.95;15.70;;;-1.30;99.90;;;-2.81;100.00;96753.16;5099187;28;20404;-73
2022/12/08 07:16:10;;;;;;;30.75;15.23;;;-1.30;99.90;;;-2.83;100.00;96749.94;5101231;28;20888;-75
2022/12/08 07:18:38;;;;;;;27.15;14.38;;;-1.30;99.90;;;-2.82;100.00;96751.56;5098881;28;20414;-74
2022/12/08 07:21:06;;;;;;;28.20;14.82;;;-1.30;99.90;;;-2.82;100.00;96753.34;5101496;28;20424;-75
2022/12/08 07:23:32;;;;;;;28.97;14.47;;;-1.30;99.90;;;-2.81;100.00;96749.78;5098627;28;20432;-75
2022/12/08 07:26:01;;;;;;;29.17;15.13;;;-1.30;99.90;;;-2.82;100.00;96738.59;5096513;28;20877;-75
2022/12/08 07:28:29;;;;;;;28.92;14.80;;;-1.30;99.90;;;-2.81;100.00;96755.75;5088585;28;20918;-74
2022/12/08 07:30:54;;;;;;;35.60;15.93;;;-1.30;99.90;;;-2.77;100.00;96754.38;5094098;28;20400;-74
2022/12/08 07:33:20;;;;;;;33.83;16.65;;;-1.30;99.90;;;-2.75;100.00;96752.44;5085154;28;20466;-75
2022/12/08 07:35:54;;;;;;;32.08;17.13;;;-1.20;99.90;;;-2.77;100.00;96758.75;5073970;28;20398;-75
2022/12/08 07:38:20;;;;;;;32.40;16.38;;;-1.30;99.90;;;-2.80;100.00;96757.34;5089056;28;20406;-74
2022/12/08 07:40:46;;;;;;;29.20;15.57;;;-1.30;99.90;;;-2.78;100.00;96757.16;5086612;28;20411;-74
2022/12/08 07:43:12;;;;;;;36.47;17.95;;;-1.30;99.90;;;-2.74;100.00;96754.03;5080563;28;20426;-74
2022/12/08 07:45:40;;;;;;;36.67;17.77;;;-1.20;99.90;;;-2.70;100.00;96764.00;5080713;28;20498;-74
2022/12/08 07:48:06;;;;;;;36.10;17.52;;;-1.20;99.90;;;-2.71;100.00;96759.84;5087247;28;20894;-77
2022/12/08 07:50:32;;;;;;;28.10;15.20;;;-1.20;99.90;;;-2.73;100.00;96757.44;5071470;28;20479;-74
2022/12/08 07:52:59;;;;;;;32.80;16.60;;;-1.20;99.90;;;-2.71;100.00;96760.66;5081391;28;20488;-75
2022/12/08 07:55:25;;;;;;;36.15;17.30;;;-1.20;99.90;;;-2.64;100.00;96758.13;5087611;28;20398;-76
2022/12/08 07:57:51;;;;;;;31.17;16.35;;;-1.10;99.90;;;-2.63;100.00;96760.50;5089442;28;20923;-75
2022/12/08 08:00:18;;;;;;;33.15;16.40;;;-1.10;99.90;;;-2.66;100.00;96754.91;5089643;28;20867;-75
2022/12/08 08:02:45;;;;;;;31.05;16.15;;;-1.10;99.90;;;-2.60;100.00;96756.75;5088909;28;20443;-74
2022/12/08 08:05:11;;;;;;;32.38;15.10;;;-1.10;99.90;;;-2.60;100.00;96748.97;5089636;28;21187;-74
2022/12/08 08:07:38;;;;;;;27.05;14.23;;;-1.10;99.90;;;-2.60;100.00;96746.41;5089447;28;20741;-73
2022/12/08 08:10:07;;;;;;;24.60;14.20;;;-1.10;99.90;;;-2.59;100.00;96750.59;5075849;28;20442;-74
2022/12/08 08:12:33;;;;;;;29.13;14.95;;;-1.10;99.90;;;-2.57;100.00;96741.66;5085738;28;20421;-75
2022/12/08 08:15:00;;;;;;;26.08;14.35;;;-1.00;99.90;;;-2.54;100.00;96736.09;5088492;28;20401;-75
2022/12/08 08:17:27;;;;;;;26.23;13.55;;;-1.00;99.90;;;-2.50;100.00;96731.34;5081893;28;20434;-76
2022/12/08 08:19:53;;;;;;;27.27;14.38;;;-1.00;99.90;;;-2.48;100.00;96737.94;5069226;28;20400;-77
2022/12/08 08:22:18;;;;;;;24.00;13.23;;;-0.90;99.90;;;-2.46;100.00;96733.38;5069871;28;20825;-77
2022/12/08 08:24:44;;;;;;;23.02;13.07;;;-0.90;99.90;;;-2.41;100.00;96738.03;5071986;28;20487;-77
2022/12/08 08:27:12;;;;;;;26.55;14.15;;;-0.90;99.90;;;-2.37;100.00;96732.28;5072786;28;20411;-76
2022/12/08 08:29:38;;;;;;;29.70;15.07;;;-0.90;99.90;;;-2.35;100.00;96739.88;5072246;28;20400;-77
2022/12/08 08:32:04;;;;;;;26.17;14.93;;;-0.80;99.90;;;-2.35;100.00;96738.09;5072372;28;20428;-78
2022/12/08 08:34:30;;;;;;;23.73;13.30;;;-0.80;99.90;;;-2.32;100.00;96739.47;5071466;28;20399;-76
2022/12/08 08:36:56;;;;;;;32.78;16.60;;;-0.90;99.90;;;-2.26;100.00;96735.38;5077657;28;20976;-76
2022/12/08 08:39:22;;;;;;;27.48;14.95;;;-0.80;99.90;;;-2.22;100.00;96737.38;5092502;28;20426;-76
2022/12/08 08:41:48;;;;;;;26.67;15.43;;;-0.70;99.90;;;-2.19;100.00;96733.63;5092707;28;20433;-75
2022/12/08 08:44:15;;;;;;;25.00;14.70;;;-0.70;99.90;;;-2.16;100.00;96741.81;5091877;28;20763;-76
2022/12/08 08:46:41;;;;;;;28.55;15.57;;;-0.70;99.90;;;-2.12;100.00;96740.47;5092287;28;20410;-74
2022/12/08 08:49:07;;;;;;;24.98;14.35;;;-0.60;99.90;;;-2.08;100.00;96733.09;5092839;28;20483;-74
2022/12/08 08:51:33;;;;;;;25.57;14.17;;;-0.60;99.90;;;-2.05;100.00;96733.53;5089363;28;20395;-76
2022/12/08 08:53:59;;;;;;;28.40;16.23;;;-0.60;99.90;;;-2.01;100.00;96733.97;5080629;28;20427;-76
2022/12/08 08:56:25;;;;;;;29.30;16.70;;;-0.60;99.90;;;-1.92;100.00;96729.44;5081242;28;20492;-75
2022/12/08 08:58:52;;;;;;;30.77;17.15;;;-0.50;99.90;;;-1.85;100.00;96738.88;5081979;28;20420;-75
2022/12/08 09:01:22;;;;;;;29.27;16.73;;;-0.40;99.90;;;-1.77;100.00;96740.53;5082489;28;20901;-77
2022/12/08 09:03:48;;;;;;;30.75;17.15;;;-0.30;99.90;;;-1.70;100.00;96736.97;5079209;28;20915;-77
2022/12/08 09:06:15;;;;;;;34.50;18.00;;;-0.30;99.90;;;-1.67;100.00;96733.22;5081258;28;20485;-76
2022/12/08 09:08:42;;;;;;;32.17;17.67;;;-0.20;99.90;;;-1.62;100.00;96728.25;5082342;28;20386;-76
2022/12/08 09:11:09;;;;;;;30.17;18.05;;;-0.20;99.90;;;-1.57;100.00;96723.28;5080249;28;20400;-76
2022/12/08 09:13:35;;;;;;;37.87;19.10;;;-0.20;99.90;;;-1.53;100.00;96728.91;5079804;28;20398;-77
2022/12/08 09:16:06;;;;;;;35.77;17.83;;;-0.10;99.90;;;-1.49;100.00;96715.34;5082418;28;20526;-78
2022/12/08 09:18:34;;;;;;;29.85;16.95;;;-0.10;99.90;;;-1.45;100.00;96711.38;5082008;28;20416;-81
2022/12/08 09:21:04;;;;;;;29.65;17.33;;;-0.10;99.90;;;-1.45;100.00;96710.56;5096074;28;20410;-78
2022/12/08 09:23:30;;;;;;;31.60;16.90;;;0.00;99.90;;;-1.38;100.00;96708.81;5080723;28;20386;-75
2022/12/08 09:25:56;;;;;;;30.55;17.63;;;0.00;99.90;;;-1.37;100.00;96708.63;5082271;28;20396;-77
2022/12/08 09:28:22;;;;;;;27.23;16.40;;;0.00;99.90;;;-1.28;100.00;96706.66;5082354;28;20767;-77
2022/12/08 09:30:49;;;;;;;27.85;15.55;;;0.10;99.90;;;-1.22;100.00;96716.28;5078755;28;20421;-77
2022/12/08 09:33:15;;;;;;;28.40;16.30;;;0.10;99.90;;;-1.17;100.00;96712.09;5085244;28;20390;-78
2022/12/08 09:35:42;;;;;;;28.38;16.15;;;0.20;99.90;;;-1.06;100.00;96721.16;5081739;28;20801;-78
2022/12/08 09:38:08;;;;;;;27.65;16.10;;;0.30;99.90;;;-0.98;100.00;96714.97;5084217;28;20414;-78
2022/12/08 09:40:41;;;;;;;27.80;16.88;;;0.40;99.90;;;-0.92;100.00;96709.81;5081775;28;20784;-79
2022/12/08 09:43:19;;;;;;;31.10;17.90;;;0.40;99.90;;;-0.86;100.00;96705.63;5084370;28;20459;-78
2022/12/08 09:45:47;;;;;;;27.23;16.07;;;0.40;99.90;;;-0.64;100.00;96707.06;5085164;28;20443;-76
2022/12/08 09:48:16;;;;;;;22.98;13.50;;;0.60;99.90;;;-0.10;100.00;96704.31;5079043;28;20398;-74
2022/12/08 09:50:51;;;;;;;368.65;35.35;;;1.00;99.90;;;0.57;100.00;96695.41;5081420;28;20502;-74
2022/12/08 09:53:23;;;;;;;52.60;12.45;;;1.70;99.90;;;1.27;100.00;96692.91;5080155;28;20490;-76
2022/12/08 09:55:54;;;;;;;14.38;10.18;;;2.40;99.90;;;2.01;100.00;96686.97;5083464;28;20386;-73
2022/12/08 09:58:28;;;;;;;11.65;7.95;;;3.20;99.90;;;2.83;100.00;96689.16;5079253;28;20426;-73
2022/12/08 10:00:54;;;;;;;14.65;8.43;;;4.00;99.90;;;3.67;100.00;96690.06;5081587;28;20446;-75
2022/12/08 10:03:26;;;;;;;14.85;7.90;;;4.90;99.90;;;4.04;100.00;96686.25;5078933;28;20446;-76
2022/12/08 10:06:04;;;;;;;9.85;6.80;;;5.40;99.90;;;5.04;100.00;96688.63;5084606;28;20416;-75
2022/12/08 10:08:40;;;;;;;12.03;6.43;;;6.20;99.90;;;5.75;100.00;96674.19;5080660;28;20482;-78
2022/12/08 10:11:13;;;;;;;9.88;6.22;;;7.10;99.90;;;6.61;100.00;96671.03;5079395;28;20908;-74